createdAt,value
2023-03-29T00:02:48.917Z,84495.94
2023-03-29T00:05:57.560Z,84499.03
2023-03-29T00:09:01.960Z,84503.84
2023-03-29T00:12:04.923Z,84500.66
2023-03-29T00:15:09.034Z,84500.66
2023-03-29T00:18:11.746Z,84506.97
2023-03-29T00:21:14.126Z,84507.72
2023-03-29T00:24:17.730Z,84508.53
2023-03-29T00:27:21.964Z,84521.19
2023-03-29T00:30:24.850Z,84524.31
2023-03-29T00:33:27.950Z,84532.97
2023-03-29T00:36:30.834Z,84532.16
2023-03-29T00:39:33.316Z,84541.63
2023-03-29T00:42:36.331Z,84541.63
2023-03-29T00:45:39.089Z,84549.44
2023-03-29T00:48:42.382Z,84560.53
2023-03-29T00:51:45.955Z,84557.38
2023-03-29T00:54:56.087Z,84571.56
2023-03-29T00:58:01.052Z,84565.19
2023-03-29T01:01:10.965Z,84568.41
2023-03-29T01:04:24.069Z,84562.09
2023-03-29T01:07:38.188Z,84565.22
2023-03-29T01:10:47.244Z,84569.97
2023-03-29T01:14:04.418Z,84570.75
2023-03-29T01:17:07.783Z,84570.75
2023-03-29T01:20:19.318Z,84560.50
2023-03-29T01:23:54.362Z,84566.81
2023-03-29T01:27:03.590Z,84571.53
2023-03-29T01:30:14.197Z,84569.91
2023-03-29T01:33:31.694Z,84573.09
2023-03-29T01:36:41.683Z,84574.63
2023-03-29T01:39:44.817Z,84574.59
2023-03-29T01:43:11.617Z,84569.16
2023-03-29T01:46:39.014Z,84573.03
2023-03-29T01:49:48.438Z,84576.22
2023-03-29T01:53:00.419Z,84576.22
2023-03-29T01:56:13.276Z,84574.66
2023-03-29T01:59:26.295Z,84576.22
2023-03-29T02:02:31.017Z,84579.31
2023-03-29T02:05:35.952Z,84585.69
2023-03-29T02:08:42.021Z,84587.25
2023-03-29T02:11:46.100Z,84587.19
2023-03-29T02:14:49.231Z,84587.22
2023-03-29T02:17:52.854Z,84587.28
2023-03-29T02:20:57.564Z,84585.69
2023-03-29T02:24:03.437Z,84584.03
2023-03-29T02:27:06.491Z,84588.84
2023-03-29T02:30:12.279Z,84591.94
2023-03-29T02:33:24.104Z,84590.34
2023-03-29T02:36:52.102Z,84592.78
2023-03-29T02:39:55.054Z,84590.47
2023-03-29T02:42:58.206Z,84590.37
2023-03-29T02:46:02.656Z,84594.31
2023-03-29T02:49:05.446Z,84590.41
2023-03-29T02:52:18.307Z,84590.37
2023-03-29T02:55:25.172Z,84591.97
2023-03-29T02:58:28.887Z,84588.84
2023-03-29T03:01:31.318Z,84593.56
2023-03-29T03:04:35.728Z,84591.97
2023-03-29T03:07:40.587Z,84591.22
2023-03-29T03:10:43.503Z,84590.47
2023-03-29T03:13:46.183Z,84588.87
2023-03-29T03:16:49.562Z,84596.78
2023-03-29T03:19:53.260Z,84604.66
2023-03-29T03:22:57.536Z,84607.00
2023-03-29T03:26:00.153Z,84603.03
2023-03-29T03:29:03.422Z,84610.91
2023-03-29T03:32:08.111Z,84596.75
2023-03-29T03:35:12.930Z,84601.47
2023-03-29T03:38:16.639Z,84598.31
2023-03-29T03:41:19.695Z,84598.31
2023-03-29T03:44:22.190Z,84593.59
2023-03-29T03:47:28.431Z,84604.63
2023-03-29T03:50:31.477Z,84605.34
2023-03-29T03:53:34.346Z,84609.34
2023-03-29T03:56:39.629Z,84609.34
2023-03-29T03:59:42.746Z,84610.97
2023-03-29T04:02:47.267Z,84615.69
2023-03-29T04:05:50.627Z,84615.62
2023-03-29T04:08:54.061Z,84617.94
2023-03-29T04:12:01.624Z,84622.78
2023-03-29T04:15:05.947Z,84615.66
2023-03-29T04:18:08.911Z,84617.19
2023-03-29T04:21:12.895Z,84614.84
2023-03-29T04:24:17.285Z,84607.75
2023-03-29T04:27:21.635Z,84609.38
2023-03-29T04:30:24.524Z,84603.06
2023-03-29T04:33:29.434Z,84596.69
2023-03-29T04:36:33.967Z,84596.75
2023-03-29T04:39:37.639Z,84593.59
2023-03-29T04:42:45.929Z,84591.28
2023-03-29T04:45:48.693Z,84584.16
2023-03-29T04:48:52.290Z,84577.84
2023-03-29T04:51:57.763Z,84579.47
2023-03-29T04:55:02.957Z,84568.38
2023-03-29T04:58:07.913Z,84558.94
2023-03-29T05:01:11.139Z,84555.81
2023-03-29T05:04:14.695Z,84550.28
2023-03-29T05:07:19.231Z,84548.75
2023-03-29T05:10:21.963Z,84544.00
2023-03-29T05:13:25.477Z,84538.53
2023-03-29T05:16:31.263Z,84527.50
2023-03-29T05:19:36.516Z,84529.03
2023-03-29T05:22:40.337Z,84525.91
2023-03-29T05:25:43.982Z,84518.00
2023-03-29T05:28:46.440Z,84519.53
2023-03-29T05:31:49.607Z,84513.28
2023-03-29T05:34:52.998Z,84505.41
2023-03-29T05:37:56.471Z,84514.09
2023-03-29T05:41:00.576Z,84495.97
2023-03-29T05:44:06.354Z,84499.03
2023-03-29T05:47:08.938Z,84500.66
2023-03-29T05:50:11.909Z,84481.75
2023-03-29T05:53:15.718Z,84480.19
2023-03-29T05:56:19.425Z,84475.50
2023-03-29T05:59:23.685Z,84477.03
2023-03-29T06:02:28.470Z,84447.06
2023-03-29T06:05:31.370Z,84480.19
2023-03-29T06:08:35.123Z,84473.09
2023-03-29T06:11:38.263Z,84459.69
2023-03-29T06:14:43.357Z,84439.19
2023-03-29T06:17:47.267Z,84431.31
2023-03-29T06:20:51.240Z,84406.06
2023-03-29T06:23:54.238Z,84421.87
2023-03-29T06:26:57.422Z,84423.47
2023-03-29T06:30:01.173Z,84402.16
2023-03-29T06:33:03.841Z,84415.56
2023-03-29T06:36:08.424Z,84406.06
2023-03-29T06:39:11.281Z,84399.00
2023-03-29T06:42:21.082Z,84391.87
2023-03-29T06:45:31.514Z,84382.41
2023-03-29T06:48:34.804Z,84354.03
2023-03-29T06:51:37.986Z,84349.31
2023-03-29T06:54:40.784Z,84336.66
2023-03-29T06:57:43.712Z,84323.22
2023-03-29T07:00:47.535Z,84335.09
2023-03-29T07:03:50.383Z,84303.50
2023-03-29T07:07:01.624Z,84278.25
2023-03-29T07:10:05.725Z,84260.88
2023-03-29T07:13:14.625Z,84245.09
2023-03-29T07:16:19.460Z,84235.59
2023-03-29T07:19:24.457Z,84238.75
2023-03-29T07:22:31.405Z,84238.78
2023-03-29T07:25:35.594Z,84232.44
2023-03-29T07:28:39.369Z,84245.84
2023-03-29T07:31:43.804Z,84230.81
2023-03-29T07:34:51.343Z,84221.34
2023-03-29T07:37:56.130Z,84177.09
2023-03-29T07:40:59.721Z,84161.31
2023-03-29T07:44:09.260Z,84145.47
2023-03-29T07:47:12.961Z,84120.19
2023-03-29T07:50:17.011Z,84102.00
2023-03-29T07:53:19.574Z,84028.47
2023-03-29T07:56:22.990Z,83998.34
2023-03-29T07:59:26.829Z,84026.91
2023-03-29T08:02:30.266Z,84019.00
2023-03-29T08:05:41.411Z,84028.44
2023-03-29T08:08:44.788Z,84025.25
2023-03-29T08:11:48.014Z,84047.47
2023-03-29T08:14:51.676Z,84069.56
2023-03-29T08:17:55.111Z,84107.53
2023-03-29T08:20:58.172Z,84102.84
2023-03-29T08:24:01.748Z,84101.22
2023-03-29T08:27:04.875Z,84090.97
2023-03-29T08:30:09.638Z,84088.56
2023-03-29T08:33:12.958Z,84105.97
2023-03-29T08:36:16.262Z,84075.91
2023-03-29T08:39:19.666Z,84074.31
2023-03-29T08:42:39.127Z,84001.53
2023-03-29T08:45:57.270Z,83996.78
2023-03-29T08:49:04.630Z,83936.59
2023-03-29T08:52:21.126Z,83914.44
2023-03-29T08:55:33.876Z,83878.06
2023-03-29T08:58:38.865Z,83865.31
2023-03-29T09:01:43.779Z,83836.81
2023-03-29T09:04:48.418Z,83776.56
2023-03-29T09:07:53.379Z,83802.78
2023-03-29T09:10:56.267Z,83786.25
2023-03-29T09:14:21.021Z,83711.56
2023-03-29T09:18:02.121Z,83683.81
2023-03-29T09:21:16.828Z,83605.22
2023-03-29T09:24:25.663Z,83566.34
2023-03-29T09:27:43.857Z,83552.87
2023-03-29T09:30:56.168Z,83636.25
2023-03-29T09:34:03.463Z,83730.72
2023-03-29T09:37:32.078Z,83752.94
2023-03-29T09:40:42.773Z,83726.75
2023-03-29T09:43:48.285Z,83702.12
2023-03-29T09:46:58.818Z,83697.37
2023-03-29T09:50:31.893Z,83605.38
2023-03-29T09:53:36.298Z,83604.69
2023-03-29T09:56:42.756Z,83597.41
2023-03-29T09:59:48.695Z,83609.38
2023-03-29T10:02:54.638Z,83546.63
2023-03-29T10:06:05.213Z,83507.75
2023-03-29T10:09:17.185Z,83498.22
2023-03-29T10:12:20.906Z,83526.03
2023-03-29T10:15:29.800Z,83563.38
2023-03-29T10:18:39.211Z,83534.06
2023-03-29T10:21:42.518Z,83493.50
2023-03-29T10:24:49.492Z,83441.84
2023-03-29T10:27:53.702Z,83418.19
2023-03-29T10:30:59.933Z,83398.19
2023-03-29T10:34:06.666Z,83373.59
2023-03-29T10:37:12.379Z,83371.97
2023-03-29T10:40:36.467Z,83333.84
2023-03-29T10:43:44.171Z,83356.91
2023-03-29T10:46:46.734Z,83360.88
2023-03-29T10:49:58.889Z,83378.41
2023-03-29T10:53:04.168Z,83294.25
2023-03-29T10:56:29.036Z,83268.63
2023-03-29T10:59:38.897Z,83269.44
2023-03-29T11:02:57.277Z,83257.44
2023-03-29T11:06:04.287Z,83336.28
2023-03-29T11:09:32.164Z,83271.84
2023-03-29T11:12:45.022Z,83281.38
2023-03-29T11:16:13.023Z,83351.66
2023-03-29T11:19:34.107Z,83335.53
2023-03-29T11:22:52.444Z,83394.38
2023-03-29T11:26:12.037Z,83310.06
2023-03-29T11:29:23.175Z,83330.78
2023-03-29T11:32:34.437Z,83329.13
2023-03-29T11:36:05.141Z,83365.03
2023-03-29T11:39:28.701Z,83380.13
2023-03-29T11:42:36.119Z,83383.50
2023-03-29T11:45:46.414Z,83391.31
2023-03-29T11:49:25.614Z,83386.53
2023-03-29T11:52:41.049Z,83311.78
2023-03-29T11:55:44.856Z,83353.94
2023-03-29T11:58:55.515Z,83326.13
2023-03-29T12:02:24.818Z,83338.87
2023-03-29T12:05:54.184Z,83323.00
2023-03-29T12:09:04.102Z,83385.06
2023-03-29T12:12:20.316Z,83418.41
2023-03-29T12:15:26.535Z,83455.78
2023-03-29T12:18:39.886Z,83480.38
2023-03-29T12:21:44.655Z,83479.00
2023-03-29T12:24:51.570Z,83451.03
2023-03-29T12:28:21.605Z,83473.44
2023-03-29T12:31:51.063Z,83470.13
2023-03-29T12:35:32.028Z,83456.66
2023-03-29T12:38:38.390Z,83451.94
2023-03-29T12:41:48.826Z,83461.53
2023-03-29T12:45:02.521Z,83471.03
2023-03-29T12:48:08.573Z,83478.16
2023-03-29T12:51:21.203Z,83488.47
2023-03-29T12:54:28.569Z,83514.06
2023-03-29T12:58:05.877Z,83475.78
2023-03-29T13:01:31.536Z,83485.31
2023-03-29T13:04:52.755Z,83504.53
2023-03-29T13:07:56.101Z,83534.56
2023-03-29T13:10:59.027Z,83512.28
2023-03-29T13:14:13.972Z,83515.50
2023-03-29T13:17:32.150Z,83491.72
2023-03-29T13:20:51.596Z,83471.88
2023-03-29T13:24:00.659Z,83459.16
2023-03-29T13:27:22.032Z,83467.91
2023-03-29T13:30:59.626Z,83451.25
2023-03-29T13:34:31.040Z,83492.59
2023-03-29T13:38:26.005Z,83471.22
2023-03-29T13:41:29.014Z,83480.69
2023-03-29T13:44:49.129Z,83441.00
2023-03-29T13:48:05.440Z,83410.78
2023-03-29T13:51:17.623Z,83371.09
2023-03-29T13:54:58.082Z,83398.13
2023-03-29T13:58:18.257Z,83375.09
2023-03-29T14:01:30.621Z,83422.78
2023-03-29T14:04:43.702Z,83379.16
2023-03-29T14:07:54.910Z,83379.22
2023-03-29T14:11:02.141Z,83377.66
2023-03-29T14:14:08.191Z,83404.56
2023-03-29T14:17:22.881Z,83436.31
2023-03-29T14:20:33.417Z,83427.75
2023-03-29T14:23:37.902Z,83414.09
2023-03-29T14:26:46.611Z,83425.19
2023-03-29T14:29:52.419Z,83452.25
2023-03-29T14:32:56.769Z,83479.22
2023-03-29T14:36:03.995Z,83484.13
2023-03-29T14:39:20.230Z,83472.06
2023-03-29T14:42:28.053Z,83496.66
2023-03-29T14:45:31.025Z,83471.31
2023-03-29T14:48:35.921Z,83494.28
2023-03-29T14:51:40.585Z,83476.03
2023-03-29T14:54:48.761Z,83477.00
2023-03-29T14:57:54.703Z,83471.31
2023-03-29T15:00:57.886Z,83480.81
2023-03-29T15:04:09.188Z,83471.31
2023-03-29T15:07:12.198Z,83472.91
2023-03-29T15:10:19.438Z,83474.47
2023-03-29T15:13:25.597Z,83474.50
2023-03-29T15:16:32.185Z,83491.97
2023-03-29T15:19:36.514Z,83470.56
2023-03-29T15:22:41.500Z,83480.06
2023-03-29T15:26:12.536Z,83503.09
2023-03-29T15:29:23.702Z,83506.31
2023-03-29T15:32:34.665Z,83520.56
2023-03-29T15:35:38.041Z,83503.28
2023-03-29T15:38:45.388Z,83522.16
2023-03-29T15:41:50.475Z,83523.75
2023-03-29T15:44:56.590Z,83515.88
2023-03-29T15:48:04.759Z,83512.72
2023-03-29T15:51:09.339Z,83520.63
2023-03-29T15:54:11.915Z,83504.78
2023-03-29T15:57:16.313Z,83502.41
2023-03-29T16:00:21.287Z,83522.25
2023-03-29T16:03:24.593Z,83515.91
2023-03-29T16:06:27.307Z,83530.22
2023-03-29T16:09:30.851Z,83525.47
2023-03-29T16:12:35.832Z,83508.00
2023-03-29T16:15:40.090Z,83503.22
2023-03-29T16:18:43.077Z,83496.88
2023-03-29T16:21:46.005Z,83493.84
2023-03-29T16:24:48.517Z,83485.81
2023-03-29T16:27:52.794Z,83506.44
2023-03-29T16:30:55.473Z,83501.69
2023-03-29T16:33:58.121Z,83515.94
2023-03-29T16:37:01.316Z,83506.59
2023-03-29T16:40:07.907Z,83498.53
2023-03-29T16:43:16.174Z,83489.16
2023-03-29T16:46:19.487Z,83502.47
2023-03-29T16:49:22.453Z,83508.06
2023-03-29T16:52:25.767Z,83525.44
2023-03-29T16:55:28.472Z,83522.31
2023-03-29T16:58:31.370Z,83528.63
2023-03-29T17:01:33.837Z,83530.25
2023-03-29T17:04:37.148Z,83530.28
2023-03-29T17:07:39.850Z,83544.56
2023-03-29T17:10:43.480Z,83545.31
2023-03-29T17:13:46.279Z,83549.31
2023-03-29T17:16:49.030Z,83556.47
2023-03-29T17:19:51.768Z,83551.69
2023-03-29T17:22:56.469Z,83567.53
2023-03-29T17:26:01.873Z,83573.06
2023-03-29T17:29:06.602Z,83581.00
2023-03-29T17:32:10.059Z,83594.50
2023-03-29T17:35:13.635Z,83594.53
2023-03-29T17:38:16.726Z,83593.69
2023-03-29T17:41:20.049Z,83592.09
2023-03-29T17:44:22.585Z,83585.72
2023-03-29T17:47:25.771Z,83596.84
2023-03-29T17:50:28.317Z,83615.03
2023-03-29T17:53:31.249Z,83618.22
2023-03-29T17:56:34.124Z,83622.13
2023-03-29T17:59:38.124Z,83633.25
2023-03-29T18:02:41.708Z,83634.06
2023-03-29T18:05:45.125Z,83636.44
2023-03-29T18:08:48.115Z,83645.13
2023-03-29T18:11:51.074Z,83652.31
2023-03-29T18:14:53.722Z,83656.22
2023-03-29T18:17:57.751Z,83649.09
2023-03-29T18:21:00.854Z,83654.59
2023-03-29T18:24:04.112Z,83668.06
2023-03-29T18:27:07.499Z,83665.00
2023-03-29T18:30:11.106Z,83677.59
2023-03-29T18:33:14.061Z,83679.12
2023-03-29T18:36:17.374Z,83674.44
2023-03-29T18:39:19.944Z,83679.22
2023-03-29T18:42:22.843Z,83672.91
2023-03-29T18:45:25.376Z,83671.25
2023-03-29T18:48:28.198Z,83679.12
2023-03-29T18:51:33.024Z,83669.66
2023-03-29T18:54:35.877Z,83672.81
2023-03-29T18:57:38.807Z,83674.47
2023-03-29T19:00:43.169Z,83677.56
2023-03-29T19:03:45.948Z,83668.06
2023-03-29T19:06:49.422Z,83671.22
2023-03-29T19:09:52.179Z,83668.09
2023-03-29T19:12:54.936Z,83673.59
2023-03-29T19:15:57.489Z,83675.94
2023-03-29T19:19:00.342Z,83677.63
2023-03-29T19:22:03.688Z,83676.06
2023-03-29T19:25:07.586Z,83685.44
2023-03-29T19:28:10.345Z,83692.59
2023-03-29T19:31:13.265Z,83691.81
2023-03-29T19:34:19.747Z,83690.25
2023-03-29T19:37:22.589Z,83702.88
2023-03-29T19:40:25.494Z,83706.03
2023-03-29T19:43:29.035Z,83704.47
2023-03-29T19:46:32.170Z,83702.91
2023-03-29T19:49:36.659Z,83717.16
2023-03-29T19:52:39.427Z,83717.12
2023-03-29T19:55:42.850Z,83707.66
2023-03-29T19:58:46.842Z,83710.88
2023-03-29T20:01:52.805Z,83714.81
2023-03-29T20:04:57.666Z,83706.97
2023-03-29T20:08:00.245Z,83706.13
2023-03-29T20:11:04.397Z,83706.06
2023-03-29T20:14:07.251Z,83699.78
2023-03-29T20:17:10.133Z,83699.75
2023-03-29T20:20:14.042Z,83706.16
2023-03-29T20:23:17.274Z,83706.09
2023-03-29T20:26:19.752Z,83705.31
2023-03-29T20:29:22.524Z,83706.09
2023-03-29T20:32:25.172Z,83698.97
2023-03-29T20:35:27.978Z,83700.53
2023-03-29T20:38:30.709Z,83698.31
2023-03-29T20:41:33.897Z,83691.88
2023-03-29T20:44:36.647Z,83682.44
2023-03-29T20:47:42.639Z,83677.63
2023-03-29T20:50:49.335Z,83668.16
2023-03-29T20:53:52.345Z,83676.03
2023-03-29T20:56:54.995Z,83672.06
2023-03-29T20:59:57.885Z,83680.81
2023-03-29T21:03:00.708Z,83680.78
2023-03-29T21:06:03.881Z,83671.28
2023-03-29T21:09:06.386Z,83668.91
2023-03-29T21:12:09.907Z,83665.84
2023-03-29T21:15:13.882Z,83668.13
2023-03-29T21:18:16.990Z,83672.16
2023-03-29T21:21:19.714Z,83667.37
2023-03-29T21:24:22.613Z,83671.41
2023-03-29T21:27:25.430Z,83672.88
2023-03-29T21:30:31.421Z,83675.34
2023-03-29T21:33:35.663Z,83690.37
2023-03-29T21:36:39.844Z,83679.25
2023-03-29T21:39:42.494Z,83682.37
2023-03-29T21:42:45.403Z,83685.56
2023-03-29T21:45:51.046Z,83677.75
2023-03-29T21:48:54.233Z,83679.25
2023-03-29T21:51:56.865Z,83677.66
2023-03-29T21:55:00.577Z,83685.56
2023-03-29T21:58:04.751Z,83682.41
2023-03-29T22:01:10.193Z,83682.44
2023-03-29T22:04:19.890Z,83685.59
2023-03-29T22:07:28.426Z,83697.44
2023-03-29T22:10:33.132Z,83707.75
2023-03-29T22:13:36.240Z,83693.50
2023-03-29T22:16:39.018Z,83691.13
2023-03-29T22:19:41.924Z,83704.56
2023-03-29T22:22:49.852Z,83701.41
2023-03-29T22:25:52.404Z,83701.44
2023-03-29T22:28:56.912Z,83715.66
2023-03-29T22:31:59.443Z,83714.91
2023-03-29T22:35:02.760Z,83732.31
2023-03-29T22:38:05.223Z,83726.06
2023-03-29T22:41:10.487Z,83722.06
2023-03-29T22:44:13.248Z,83733.06
2023-03-29T22:47:16.084Z,83734.78
2023-03-29T22:50:18.569Z,83729.91
2023-03-29T22:53:21.685Z,83731.47
2023-03-29T22:56:24.861Z,83747.31
2023-03-29T22:59:27.882Z,83753.66
2023-03-29T23:02:30.580Z,83764.75
2023-03-29T23:05:33.839Z,83752.09
2023-03-29T23:08:36.363Z,83752.09
2023-03-29T23:11:39.285Z,83752.13
2023-03-29T23:14:42.891Z,83756.81
2023-03-29T23:17:45.803Z,83755.28
2023-03-29T23:20:50.399Z,83753.78
2023-03-29T23:23:53.145Z,83753.75
2023-03-29T23:26:55.594Z,83749.75
2023-03-29T23:29:59.584Z,83755.28
2023-03-29T23:33:02.554Z,83767.91
2023-03-29T23:36:07.695Z,83766.41
2023-03-29T23:39:10.176Z,83767.94
2023-03-29T23:42:13.043Z,83772.66
2023-03-29T23:45:21.180Z,83768.75
2023-03-29T23:48:24.629Z,83769.53
2023-03-29T23:51:28.257Z,83773.47
2023-03-29T23:54:32.064Z,83770.31
2023-03-29T23:57:37.755Z,83763.19
